createdAt,value
2017-11-22T00:01:21.837Z,12.80
2017-11-22T00:03:51.620Z,10.43
2017-11-22T00:06:21.371Z,12.55
2017-11-22T00:08:50.931Z,10.70
2017-11-22T00:11:20.679Z,10.95
2017-11-22T00:13:50.397Z,11.88
2017-11-22T00:16:20.745Z,12.27
2017-11-22T00:18:50.600Z,10.77
2017-11-22T00:21:21.184Z,12.13
2017-11-22T00:23:58.106Z,11.88
2017-11-22T00:26:31.133Z,12.70
2017-11-22T00:29:00.909Z,13.18
2017-11-22T00:31:30.686Z,14.50
2017-11-22T00:34:00.420Z,15.38
2017-11-22T00:36:30.183Z,13.13
2017-11-22T00:38:59.972Z,13.25
2017-11-22T00:41:29.866Z,13.90
2017-11-22T00:43:59.674Z,14.00
2017-11-22T00:46:29.413Z,14.55
2017-11-22T00:48:59.190Z,14.25
2017-11-22T00:51:28.987Z,14.38
2017-11-22T00:53:58.770Z,13.13
2017-11-22T00:56:28.547Z,13.93
2017-11-22T00:58:58.367Z,14.30
2017-11-22T01:01:28.095Z,11.70
2017-11-22T01:03:57.834Z,12.68
2017-11-22T01:06:27.620Z,12.90
2017-11-22T01:08:57.401Z,11.10
2017-11-22T01:11:27.148Z,13.32
2017-11-22T01:13:56.889Z,13.98
2017-11-22T01:16:26.621Z,15.43
2017-11-22T01:18:56.865Z,14.13
2017-11-22T01:21:26.869Z,13.38
2017-11-22T01:23:56.853Z,12.30
2017-11-22T01:26:26.634Z,12.88
2017-11-22T01:28:56.429Z,12.77
2017-11-22T01:31:26.151Z,13.20
2017-11-22T01:33:55.884Z,13.00
2017-11-22T01:36:25.629Z,12.90
2017-11-22T01:38:55.377Z,13.85
2017-11-22T01:41:25.128Z,13.48
2017-11-22T01:43:54.777Z,13.90
2017-11-22T01:46:24.397Z,14.48
2017-11-22T01:48:53.824Z,13.85
2017-11-22T01:51:23.566Z,14.98
2017-11-22T01:53:53.326Z,13.80
2017-11-22T01:56:23.074Z,13.43
2017-11-22T01:58:52.796Z,13.13
2017-11-22T02:01:22.571Z,12.73
2017-11-22T02:03:52.452Z,14.52
2017-11-22T02:06:22.274Z,13.68
2017-11-22T02:08:52.032Z,15.23
2017-11-22T02:11:21.766Z,13.40
2017-11-22T02:13:51.564Z,15.35
2017-11-22T02:16:21.570Z,15.25
2017-11-22T02:18:51.398Z,14.60
2017-11-22T02:21:21.207Z,14.63
2017-11-22T02:23:51.434Z,12.88
2017-11-22T02:26:21.254Z,11.77
2017-11-22T02:28:50.650Z,11.70
2017-11-22T02:31:20.202Z,12.75
2017-11-22T02:33:49.831Z,11.43
2017-11-22T02:36:19.678Z,12.77
2017-11-22T02:38:49.655Z,12.30
2017-11-22T02:41:19.595Z,15.70
2017-11-22T02:43:49.348Z,17.45
2017-11-22T02:46:19.137Z,24.95
2017-11-22T02:48:48.904Z,24.33
2017-11-22T02:51:18.672Z,25.77
2017-11-22T02:53:48.493Z,18.15
2017-11-22T02:56:18.545Z,16.00
2017-11-22T02:58:48.298Z,20.85
2017-11-22T03:01:18.040Z,15.52
2017-11-22T03:03:47.819Z,16.27
2017-11-22T03:06:17.573Z,15.27
2017-11-22T03:08:47.185Z,15.25
2017-11-22T03:11:16.990Z,13.57
2017-11-22T03:13:46.728Z,14.07
2017-11-22T03:16:16.483Z,14.32
2017-11-22T03:18:46.385Z,15.48
2017-11-22T03:21:16.740Z,13.35
2017-11-22T03:23:46.520Z,14.60
2017-11-22T03:26:16.238Z,13.82
2017-11-22T03:28:46.125Z,16.55
2017-11-22T03:31:15.859Z,16.08
2017-11-22T03:33:45.588Z,16.50
2017-11-22T03:36:15.075Z,18.12
2017-11-22T03:38:44.803Z,19.85
2017-11-22T03:41:14.574Z,25.73
2017-11-22T03:43:44.473Z,23.40
2017-11-22T03:46:14.860Z,23.05
2017-11-22T03:48:47.554Z,21.42
2017-11-22T03:51:22.786Z,16.10
2017-11-22T03:53:52.512Z,15.35
2017-11-22T03:56:22.300Z,15.57
2017-11-22T03:58:52.644Z,15.15
2017-11-22T04:01:24.088Z,14.68
2017-11-22T04:03:53.814Z,14.57
2017-11-22T04:06:23.553Z,14.32
2017-11-22T04:08:53.313Z,14.65
2017-11-22T04:11:23.051Z,16.60
2017-11-22T04:13:52.815Z,14.35
2017-11-22T04:16:22.614Z,13.10
2017-11-22T04:18:57.994Z,14.07
2017-11-22T04:21:27.805Z,13.73
2017-11-22T04:23:57.558Z,13.02
2017-11-22T04:26:27.322Z,15.68
2017-11-22T04:28:57.058Z,16.85
2017-11-22T04:31:26.878Z,16.52
2017-11-22T04:33:56.584Z,13.73
2017-11-22T04:36:26.439Z,14.45
2017-11-22T04:38:56.273Z,16.48
2017-11-22T04:41:25.749Z,14.50
2017-11-22T04:43:55.385Z,14.35
2017-11-22T04:46:25.108Z,14.77
2017-11-22T04:48:54.838Z,14.30
2017-11-22T04:51:24.625Z,14.65
2017-11-22T04:53:54.410Z,14.55
2017-11-22T04:56:24.422Z,14.73
2017-11-22T04:58:54.279Z,13.50
2017-11-22T05:01:24.025Z,13.85
2017-11-22T05:03:53.893Z,14.20
2017-11-22T05:06:23.683Z,12.68
2017-11-22T05:08:53.430Z,14.20
2017-11-22T05:11:23.174Z,15.10
2017-11-22T05:13:52.919Z,14.82
2017-11-22T05:16:23.092Z,14.70
2017-11-22T05:18:52.551Z,15.90
2017-11-22T05:21:22.477Z,18.80
2017-11-22T05:23:52.372Z,18.00
2017-11-22T05:26:22.221Z,16.95
2017-11-22T05:28:51.960Z,16.70
2017-11-22T05:31:21.859Z,17.12
2017-11-22T05:33:51.681Z,15.48
2017-11-22T05:36:21.414Z,15.63
2017-11-22T05:38:51.195Z,16.40
2017-11-22T05:41:21.130Z,18.40
2017-11-22T05:43:51.026Z,18.58
2017-11-22T05:46:20.909Z,18.58
2017-11-22T05:48:52.952Z,19.02
2017-11-22T05:51:23.409Z,19.75
2017-11-22T05:53:53.144Z,17.75
2017-11-22T05:56:22.562Z,16.58
2017-11-22T05:58:52.439Z,19.10
2017-11-22T06:01:22.434Z,17.12
2017-11-22T06:03:52.301Z,17.80
2017-11-22T06:06:22.137Z,18.45
2017-11-22T06:08:52.216Z,17.35
2017-11-22T06:11:31.285Z,16.35
2017-11-22T06:14:01.166Z,13.30
2017-11-22T06:16:47.556Z,16.92
2017-11-22T06:19:17.448Z,15.70
2017-11-22T06:21:49.459Z,14.77
2017-11-22T06:27:01.646Z,15.48
2017-11-22T06:29:31.657Z,15.88
2017-11-22T06:32:03.047Z,16.92
2017-11-22T06:34:33.160Z,14.95
2017-11-22T06:37:03.145Z,15.25
2017-11-22T06:39:33.056Z,17.12
2017-11-22T06:42:03.128Z,16.08
2017-11-22T06:44:33.099Z,15.55
2017-11-22T06:47:03.020Z,19.17
2017-11-22T06:49:32.850Z,17.58
2017-11-22T06:52:02.893Z,17.85
2017-11-22T06:54:32.756Z,16.95
2017-11-22T06:57:02.654Z,16.40
2017-11-22T06:59:47.071Z,16.87
2017-11-22T07:02:20.165Z,17.27
2017-11-22T07:04:50.653Z,15.73
2017-11-22T07:07:20.564Z,17.92
2017-11-22T07:09:50.824Z,18.77
2017-11-22T07:12:20.654Z,18.48
2017-11-22T07:14:50.871Z,19.23
2017-11-22T07:17:26.121Z,17.37
2017-11-22T07:19:55.944Z,15.52
2017-11-22T07:22:25.701Z,16.40
2017-11-22T07:24:55.207Z,19.55
2017-11-22T07:27:25.078Z,21.23
2017-11-22T07:29:54.939Z,20.60
2017-11-22T07:32:25.095Z,19.60
2017-11-22T07:34:55.393Z,20.27
2017-11-22T07:37:31.538Z,20.58
2017-11-22T07:40:01.407Z,18.80
2017-11-22T07:42:31.550Z,21.30
2017-11-22T07:45:01.404Z,22.75
2017-11-22T07:47:31.284Z,19.45
2017-11-22T07:50:01.147Z,17.75
2017-11-22T07:52:30.915Z,17.87
2017-11-22T07:55:00.828Z,16.40
2017-11-22T07:57:30.765Z,14.95
2017-11-22T08:00:00.642Z,14.93
2017-11-22T08:02:30.368Z,14.30
2017-11-22T08:05:00.218Z,12.85
2017-11-22T08:07:29.988Z,12.93
2017-11-22T08:09:59.649Z,11.85
2017-11-22T08:12:29.463Z,12.52
2017-11-22T08:14:59.212Z,11.75
2017-11-22T08:17:29.016Z,10.40
2017-11-22T08:19:58.587Z,11.25
2017-11-22T08:22:28.313Z,9.30
2017-11-22T08:25:00.162Z,10.63
2017-11-22T08:27:30.619Z,10.27
2017-11-22T08:30:00.392Z,9.88
2017-11-22T08:32:29.724Z,8.52
2017-11-22T08:34:59.356Z,9.55
2017-11-22T08:37:29.159Z,9.13
2017-11-22T08:39:58.959Z,8.60
2017-11-22T08:42:31.554Z,9.07
2017-11-22T08:45:01.390Z,9.02
2017-11-22T08:47:31.513Z,9.23
2017-11-22T08:50:01.245Z,8.85
2017-11-22T08:52:30.713Z,10.50
2017-11-22T08:55:05.619Z,9.77
2017-11-22T08:57:40.605Z,8.70
2017-11-22T09:00:15.459Z,10.40
2017-11-22T09:02:45.248Z,10.83
2017-11-22T09:05:14.900Z,11.47
2017-11-22T09:07:44.386Z,10.37
2017-11-22T09:10:13.870Z,11.00
2017-11-22T09:13:00.411Z,11.03
2017-11-22T09:15:29.901Z,11.57
2017-11-22T09:18:04.973Z,11.40
2017-11-22T09:20:34.509Z,10.37
2017-11-22T09:23:03.746Z,11.87
2017-11-22T09:25:36.772Z,11.80
2017-11-22T09:28:06.434Z,11.83
2017-11-22T09:30:35.902Z,13.23
2017-11-22T09:33:05.373Z,13.67
2017-11-22T09:35:34.932Z,11.40
2017-11-22T09:38:04.469Z,12.17
2017-11-22T09:40:33.933Z,11.70
2017-11-22T09:43:03.229Z,11.37
2017-11-22T09:45:32.803Z,10.57
2017-11-22T09:48:02.325Z,10.50
2017-11-22T09:50:31.826Z,11.23
2017-11-22T09:53:01.882Z,12.23
2017-11-22T09:55:31.404Z,13.03
2017-11-22T09:58:00.972Z,17.60
2017-11-22T10:00:30.554Z,21.87
2017-11-22T10:02:59.836Z,22.57
2017-11-22T10:05:29.362Z,21.60
2017-11-22T10:07:58.954Z,24.40
2017-11-22T10:10:28.592Z,22.83
2017-11-22T10:12:58.140Z,23.57
2017-11-22T10:15:27.633Z,21.00
2017-11-22T10:18:02.526Z,17.87
2017-11-22T10:20:31.924Z,20.90
2017-11-22T10:23:01.225Z,19.43
2017-11-22T10:25:31.277Z,20.93
2017-11-22T10:28:05.635Z,19.30
2017-11-22T10:30:35.031Z,20.83
2017-11-22T10:33:10.025Z,18.87
2017-11-22T10:35:40.155Z,20.17
2017-11-22T10:38:09.973Z,18.27
2017-11-22T10:40:40.832Z,20.67
2017-11-22T10:43:10.409Z,18.10
2017-11-22T10:45:41.137Z,18.00
2017-11-22T10:48:11.091Z,17.50
2017-11-22T10:50:41.762Z,18.10
2017-11-22T10:53:11.509Z,17.20
2017-11-22T10:55:40.831Z,16.90
2017-11-22T10:58:09.793Z,14.77
2017-11-22T11:00:39.640Z,14.60
2017-11-22T11:03:09.897Z,15.27
2017-11-22T11:05:39.288Z,13.37
2017-11-22T11:08:08.904Z,12.93
2017-11-22T11:10:38.594Z,12.20
2017-11-22T11:13:08.150Z,12.47
2017-11-22T11:15:37.683Z,11.33
2017-11-22T11:18:07.185Z,11.53
2017-11-22T11:20:37.009Z,10.40
2017-11-22T11:23:06.569Z,10.10
2017-11-22T11:25:36.172Z,9.00
2017-11-22T11:28:05.723Z,8.53
2017-11-22T11:30:35.371Z,9.50
2017-11-22T11:33:05.136Z,7.53
2017-11-22T11:38:46.366Z,8.30
2017-11-22T11:41:16.864Z,7.43
2017-11-22T11:43:46.954Z,7.77
2017-11-22T11:46:16.556Z,7.93
2017-11-22T11:48:46.683Z,7.70
2017-11-22T11:51:16.031Z,7.97
2017-11-22T11:53:45.540Z,7.50
2017-11-22T11:56:15.057Z,7.20
2017-11-22T11:58:44.835Z,7.03
2017-11-22T12:01:14.448Z,7.33
2017-11-22T12:03:48.205Z,6.63
2017-11-22T12:06:17.815Z,7.57
2017-11-22T12:08:47.507Z,7.53
2017-11-22T12:11:17.130Z,6.23
2017-11-22T12:13:46.681Z,6.30
2017-11-22T12:16:16.163Z,6.37
2017-11-22T12:18:45.725Z,6.50
2017-11-22T12:21:15.273Z,6.13
2017-11-22T12:23:44.831Z,5.90
2017-11-22T12:26:15.038Z,6.37
2017-11-22T12:28:44.678Z,6.63
2017-11-22T12:31:14.268Z,7.00
2017-11-22T12:33:43.755Z,7.83
2017-11-22T12:36:13.777Z,6.80
2017-11-22T12:38:43.345Z,7.20
2017-11-22T12:41:15.259Z,8.40
2017-11-22T12:43:51.259Z,7.70
2017-11-22T12:46:21.511Z,7.63
2017-11-22T12:48:51.242Z,7.90
2017-11-22T12:51:20.880Z,7.60
2017-11-22T12:53:50.550Z,8.60
2017-11-22T12:56:20.179Z,8.37
2017-11-22T12:58:49.769Z,9.13
2017-11-22T13:01:19.244Z,7.70
2017-11-22T13:03:48.795Z,6.50
2017-11-22T13:06:18.834Z,6.77
2017-11-22T13:08:48.869Z,6.47
2017-11-22T13:11:23.971Z,6.10
2017-11-22T13:13:53.505Z,6.50
2017-11-22T13:16:22.989Z,6.80
2017-11-22T13:18:52.541Z,6.40
2017-11-22T13:21:22.060Z,6.07
2017-11-22T13:23:51.624Z,6.77
2017-11-22T13:26:21.131Z,6.53
2017-11-22T13:28:50.685Z,7.77
2017-11-22T13:31:20.201Z,7.13
2017-11-22T13:33:51.081Z,7.90
2017-11-22T13:36:20.332Z,6.60
2017-11-22T13:38:49.552Z,7.13
2017-11-22T13:41:19.188Z,7.00
2017-11-22T13:43:48.948Z,6.50
2017-11-22T13:46:18.254Z,6.80
2017-11-22T13:48:47.838Z,7.43
2017-11-22T13:51:17.083Z,6.90
2017-11-22T13:53:46.666Z,7.10
2017-11-22T13:56:16.468Z,6.70
2017-11-22T13:58:45.707Z,6.40
2017-11-22T14:01:14.957Z,6.20
2017-11-22T14:03:44.876Z,7.47
2017-11-22T14:06:14.473Z,7.27
2017-11-22T14:08:43.972Z,8.47
2017-11-22T14:11:13.490Z,7.20
2017-11-22T14:13:42.943Z,8.07
2017-11-22T14:16:12.174Z,8.03
2017-11-22T14:18:41.434Z,7.90
2017-11-22T14:21:10.570Z,7.90
2017-11-22T14:23:39.808Z,8.87
2017-11-22T14:26:09.010Z,8.33
2017-11-22T14:28:38.111Z,8.17
2017-11-22T14:31:07.825Z,8.60
2017-11-22T14:33:37.346Z,8.17
2017-11-22T14:36:06.541Z,8.03
2017-11-22T14:38:36.055Z,8.77
2017-11-22T14:41:05.289Z,8.60
2017-11-22T14:43:34.832Z,8.30
2017-11-22T14:46:04.128Z,8.07
2017-11-22T14:48:33.278Z,8.07
2017-11-22T14:51:02.529Z,7.53
2017-11-22T14:53:31.812Z,9.00
2017-11-22T14:56:01.295Z,7.83
2017-11-22T14:58:30.720Z,10.23
2017-11-22T15:01:00.026Z,8.27
2017-11-22T15:03:29.492Z,9.38
2017-11-22T15:05:58.852Z,9.35
2017-11-22T15:08:28.405Z,10.32
2017-11-22T15:10:58.315Z,7.32
2017-11-22T15:13:28.142Z,8.70
2017-11-22T15:15:57.630Z,8.90
2017-11-22T15:18:27.297Z,8.23
2017-11-22T15:20:57.482Z,7.57
2017-11-22T15:23:27.076Z,8.10
2017-11-22T15:25:57.264Z,8.27
2017-11-22T15:28:26.709Z,8.25
2017-11-22T15:30:56.167Z,7.53
2017-11-22T15:33:25.717Z,8.98
2017-11-22T15:35:55.174Z,8.10
2017-11-22T15:38:24.765Z,9.25
2017-11-22T15:40:54.271Z,9.43
2017-11-22T15:43:24.040Z,9.60
2017-11-22T15:45:53.829Z,9.68
2017-11-22T15:48:23.505Z,9.50
2017-11-22T15:50:53.249Z,9.73
2017-11-22T15:53:23.088Z,10.43
2017-11-22T15:55:52.892Z,10.50
2017-11-22T15:58:22.649Z,11.65
2017-11-22T16:00:52.446Z,10.88
2017-11-22T16:03:21.872Z,10.32
2017-11-22T16:05:52.862Z,10.20
2017-11-22T16:08:23.209Z,10.10
2017-11-22T16:10:53.069Z,10.65
2017-11-22T16:13:22.846Z,11.30
2017-11-22T16:15:52.686Z,13.07
2017-11-22T16:18:22.607Z,11.43
2017-11-22T16:20:52.383Z,13.43
2017-11-22T16:23:22.178Z,12.32
2017-11-22T16:25:52.734Z,11.88
2017-11-22T16:28:22.594Z,12.43
2017-11-22T16:30:52.380Z,11.00
2017-11-22T16:33:22.690Z,10.20
2017-11-22T16:35:52.664Z,9.93
2017-11-22T16:38:22.505Z,10.02
2017-11-22T16:40:52.546Z,10.68
2017-11-22T16:43:22.383Z,11.05
2017-11-22T16:45:52.188Z,10.52
2017-11-22T16:48:21.659Z,10.25
2017-11-22T16:50:51.480Z,11.10
2017-11-22T16:53:21.245Z,11.45
2017-11-22T16:55:51.264Z,12.82
2017-11-22T16:58:21.163Z,12.07
2017-11-22T17:00:53.701Z,11.32
2017-11-22T17:03:25.397Z,12.25
2017-11-22T17:05:55.509Z,14.05
2017-11-22T17:08:25.337Z,13.23
2017-11-22T17:10:55.226Z,13.05
2017-11-22T17:13:25.154Z,13.73
2017-11-22T17:15:55.273Z,13.90
2017-11-22T17:18:25.411Z,13.15
2017-11-22T17:20:55.351Z,14.63
2017-11-22T17:23:25.354Z,14.60
2017-11-22T17:25:56.867Z,16.27
2017-11-22T17:28:27.052Z,14.40
2017-11-22T17:31:02.461Z,13.95
2017-11-22T17:33:32.356Z,16.80
2017-11-22T17:36:04.525Z,14.82
2017-11-22T17:38:34.578Z,14.15
2017-11-22T17:41:04.712Z,15.63
2017-11-22T17:43:34.461Z,17.05
2017-11-22T17:46:05.415Z,18.30
2017-11-22T17:48:35.192Z,18.37
2017-11-22T17:51:05.399Z,15.50
2017-11-22T17:53:35.252Z,16.60
2017-11-22T17:56:05.591Z,15.30
2017-11-22T17:58:35.884Z,14.80
2017-11-22T18:01:07.819Z,15.27
2017-11-22T18:03:38.288Z,16.92
2017-11-22T18:06:08.929Z,15.00
2017-11-22T18:08:40.257Z,16.40
2017-11-22T18:16:26.680Z,17.83
2017-11-22T18:18:57.271Z,15.85
2017-11-22T18:21:30.953Z,16.85
2017-11-22T18:24:02.182Z,16.70
2017-11-22T18:26:34.365Z,15.68
2017-11-22T18:31:57.122Z,15.98
2017-11-22T18:34:27.550Z,17.20
2017-11-22T18:36:59.283Z,17.65
2017-11-22T18:42:12.410Z,18.98
2017-11-22T18:44:45.212Z,20.12
2017-11-22T18:50:02.620Z,17.20
2017-11-22T18:52:34.288Z,16.30
2017-11-22T19:00:29.824Z,18.35
2017-11-22T19:02:59.722Z,17.30
2017-11-22T19:05:29.214Z,17.60
2017-11-22T19:07:58.690Z,16.55
2017-11-22T19:10:28.588Z,17.00
2017-11-22T19:12:58.337Z,15.70
2017-11-22T19:15:28.338Z,17.15
2017-11-22T19:17:58.115Z,16.10
2017-11-22T19:20:27.978Z,14.63
2017-11-22T19:22:58.114Z,16.17
2017-11-22T19:25:28.019Z,15.63
2017-11-22T19:27:57.964Z,14.65
2017-11-22T19:30:27.678Z,15.30
2017-11-22T19:32:57.568Z,14.30
2017-11-22T19:35:27.787Z,16.98
2017-11-22T19:37:57.763Z,16.83
2017-11-22T19:40:27.580Z,17.92
2017-11-22T19:42:57.466Z,16.75
2017-11-22T19:45:27.327Z,16.55
2017-11-22T19:47:56.986Z,18.15
2017-11-22T19:50:27.065Z,16.33
2017-11-22T19:52:56.948Z,15.73
2017-11-22T19:55:27.375Z,17.60
2017-11-22T19:57:57.236Z,15.50
2017-11-22T20:00:26.969Z,15.52
2017-11-22T20:02:56.848Z,14.95
2017-11-22T20:05:26.635Z,16.30
2017-11-22T20:08:07.586Z,14.70
2017-11-22T20:10:37.358Z,13.52
2017-11-22T20:13:07.129Z,14.70
2017-11-22T20:15:36.944Z,13.75
2017-11-22T20:18:06.930Z,15.18
2017-11-22T20:20:36.848Z,13.90
2017-11-22T20:23:06.785Z,13.07
2017-11-22T20:25:36.904Z,15.15
2017-11-22T20:28:06.956Z,14.38
2017-11-22T20:30:36.827Z,13.70
2017-11-22T20:33:07.419Z,14.13
2017-11-22T20:35:38.795Z,12.32
2017-11-22T20:38:08.907Z,11.77
2017-11-22T20:40:39.284Z,12.00
2017-11-22T20:43:09.252Z,11.85
2017-11-22T20:45:39.143Z,12.15
2017-11-22T20:48:08.982Z,14.07
2017-11-22T20:50:39.120Z,10.88
2017-11-22T20:53:09.331Z,10.45
2017-11-22T20:55:39.310Z,12.35
2017-11-22T20:58:09.163Z,10.82
2017-11-22T21:00:38.953Z,11.20
2017-11-22T21:03:08.543Z,11.80
2017-11-22T21:05:38.170Z,11.95
2017-11-22T21:08:07.990Z,11.98
2017-11-22T21:10:37.790Z,12.57
2017-11-22T21:13:07.543Z,13.15
2017-11-22T21:15:37.300Z,13.10
2017-11-22T21:18:07.153Z,13.45
2017-11-22T21:20:37.060Z,12.80
2017-11-22T21:23:06.971Z,13.32
2017-11-22T21:25:36.700Z,13.20
2017-11-22T21:28:06.556Z,12.95
2017-11-22T21:30:36.526Z,12.88
2017-11-22T21:33:06.358Z,14.30
2017-11-22T21:35:36.084Z,13.32
2017-11-22T21:38:05.835Z,11.75
2017-11-22T21:40:35.579Z,12.93
2017-11-22T21:43:05.305Z,12.07
2017-11-22T21:45:36.827Z,13.00
2017-11-22T21:48:07.372Z,12.73
2017-11-22T21:50:37.149Z,12.75
2017-11-22T21:53:06.968Z,12.52
2017-11-22T21:55:36.886Z,13.10
2017-11-22T21:58:06.937Z,12.07
2017-11-22T22:00:37.288Z,12.55
2017-11-22T22:03:07.239Z,11.98
2017-11-22T22:05:37.126Z,10.70
2017-11-22T22:08:08.903Z,11.60
2017-11-22T22:10:38.829Z,11.65
2017-11-22T22:13:08.669Z,12.18
2017-11-22T22:15:38.776Z,11.05
2017-11-22T22:18:08.756Z,11.65
2017-11-22T22:20:39.094Z,10.23
2017-11-22T22:23:09.100Z,9.18
2017-11-22T22:25:39.056Z,10.25
2017-11-22T22:28:08.830Z,9.43
2017-11-22T22:30:38.648Z,9.60
2017-11-22T22:33:08.571Z,9.95
2017-11-22T22:35:38.383Z,9.40
2017-11-22T22:38:08.154Z,9.60
2017-11-22T22:40:37.966Z,9.57
2017-11-22T22:43:07.741Z,9.07
2017-11-22T22:45:37.570Z,9.35
2017-11-22T22:48:07.500Z,8.40
2017-11-22T22:50:37.351Z,10.48
2017-11-22T22:53:07.175Z,10.82
2017-11-22T22:55:37.107Z,9.70
2017-11-22T22:58:07.034Z,8.52
2017-11-22T23:00:36.956Z,8.27
2017-11-22T23:03:06.672Z,8.18
2017-11-22T23:05:36.547Z,8.70
2017-11-22T23:08:07.264Z,8.18
2017-11-22T23:13:11.940Z,8.57
2017-11-22T23:15:41.635Z,8.02
2017-11-22T23:18:11.945Z,8.20
2017-11-22T23:20:41.839Z,7.82
2017-11-22T23:23:11.742Z,9.05
2017-11-22T23:25:41.670Z,7.85
2017-11-22T23:28:11.600Z,7.80
2017-11-22T23:30:41.439Z,7.82
2017-11-22T23:33:11.465Z,7.07
2017-11-22T23:35:41.093Z,8.82
2017-11-22T23:38:11.045Z,7.20
2017-11-22T23:40:40.913Z,7.03
2017-11-22T23:43:21.111Z,6.10
2017-11-22T23:45:50.871Z,7.25
2017-11-22T23:48:20.715Z,5.97
2017-11-22T23:50:50.494Z,6.70
2017-11-22T23:53:20.286Z,6.20
2017-11-22T23:55:51.319Z,6.85
2017-11-22T23:58:21.558Z,6.93
